Hovedside
METAR-TAF:

METAR-TAF

Lufthavner :

Odate-Noshiro, Japan

breddegrad: 40-11N, lengdegrad: 140-12E, høyde over havet: 84 m

Gjeldene værobservasjon

Denne rapporten ble laget for 5 timer og 1 minutter siden, klokken 10:00 UTC
Vind 11 kt fra Vest, skiftende mellom Vest-sørvest og Vest-nordvest
Temperatur -1°C
Luftfuktighet 69%
Trykk 1019 hPa
Sikt 10 km eller mer
Få skyer i en høyde av 2000 ft
Brutte skyer i en høyde av 3000 ft
lette snøbyger,

METAR: RJSR 041000Z 26011KT 240V300 9999 -SHSN FEW020 BKN030 M01/M06 Q1019

Tid: 00:01 (15:01 UTC)


TAF: fraværende

Værobservasjoner og værvarsel for over 4000 flyplasser (METAR- og TAF-rapporter).

Tilgjengelige stasjoner er representert av de røde og gule prikkene på kartet.

Hold musepekeren over prikken for å se navnet på stasjonen.

Klikk så for å se værobservasjoner og -varsler.

For å forandre kartet kan du klikke på den grønne knappen med svart kryss for å zoome inn, på den grønne knappen med strek for å zoome ut, eller på de grønne pilene for å se tilstøtende kart.


METAR-TAF: